sensor_id;sensor_type;location;lat;lon;timestamp;pressure;altitude;pressure_sealevel;temperature
77355;BMP280;66422;51.202;19.936;2023-06-04T00:06:14;99982.46;;;5.43
77355;BMP280;66422;51.202;19.936;2023-06-04T00:21:34;99979.34;;;5.23
77355;BMP280;66422;51.202;19.936;2023-06-04T00:36:54;99961.05;;;5.10
77355;BMP280;66422;51.202;19.936;2023-06-04T00:52:15;99964.83;;;5.00
77355;BMP280;66422;51.202;19.936;2023-06-04T01:07:36;99961.61;;;4.94
77355;BMP280;66422;51.202;19.936;2023-06-04T01:38:53;99961.13;;;4.56
77355;BMP280;66422;51.202;19.936;2023-06-04T01:54:13;99958.42;;;4.44
77355;BMP280;66422;51.202;19.936;2023-06-04T02:09:33;99951.39;;;4.16
77355;BMP280;66422;51.202;19.936;2023-06-04T02:24:54;99953.30;;;4.18
77355;BMP280;66422;51.202;19.936;2023-06-04T02:40:15;99956.98;;;4.01
77355;BMP280;66422;51.202;19.936;2023-06-04T02:55:34;99952.42;;;3.86
77355;BMP280;66422;51.202;19.936;2023-06-04T03:10:55;99956.19;;;3.68
77355;BMP280;66422;51.202;19.936;2023-06-04T03:26:14;99956.30;;;3.98
77355;BMP280;66422;51.202;19.936;2023-06-04T03:41:34;99960.55;;;4.85
77355;BMP280;66422;51.202;19.936;2023-06-04T03:56:55;99966.57;;;5.70
77355;BMP280;66422;51.202;19.936;2023-06-04T04:12:15;99976.83;;;7.15
77355;BMP280;66422;51.202;19.936;2023-06-04T04:27:36;99972.82;;;7.73
77355;BMP280;66422;51.202;19.936;2023-06-04T04:43:01;99964.02;;;8.97
77355;BMP280;66422;51.202;19.936;2023-06-04T04:58:21;99962.44;;;10.88
77355;BMP280;66422;51.202;19.936;2023-06-04T05:13:41;99973.02;;;13.62
77355;BMP280;66422;51.202;19.936;2023-06-04T05:29:01;100039.34;;;20.28
77355;BMP280;66422;51.202;19.936;2023-06-04T05:44:25;100049.55;;;23.02
77355;BMP280;66422;51.202;19.936;2023-06-04T05:59:46;100055.30;;;23.48
77355;BMP280;66422;51.202;19.936;2023-06-04T06:15:07;100049.84;;;24.56
77355;BMP280;66422;51.202;19.936;2023-06-04T06:30:27;100057.44;;;25.63
77355;BMP280;66422;51.202;19.936;2023-06-04T06:45:47;99989.85;;;20.12
77355;BMP280;66422;51.202;19.936;2023-06-04T07:01:07;99990.77;;;20.08
77355;BMP280;66422;51.202;19.936;2023-06-04T07:16:26;99992.36;;;20.46
77355;BMP280;66422;51.202;19.936;2023-06-04T07:31:45;99986.91;;;20.96
77355;BMP280;66422;51.202;19.936;2023-06-04T07:47:05;99987.96;;;22.50
77355;BMP280;66422;51.202;19.936;2023-06-04T08:02:25;99987.30;;;22.38
77355;BMP280;66422;51.202;19.936;2023-06-04T08:17:45;99975.91;;;23.25
77355;BMP280;66422;51.202;19.936;2023-06-04T08:33:05;99980.94;;;21.53
77355;BMP280;66422;51.202;19.936;2023-06-04T08:48:26;99982.92;;;22.55
77355;BMP280;66422;51.202;19.936;2023-06-04T09:03:47;99985.12;;;22.62
77355;BMP280;66422;51.202;19.936;2023-06-04T09:19:08;99972.64;;;23.26
77355;BMP280;66422;51.202;19.936;2023-06-04T09:34:28;99985.91;;;22.78
77355;BMP280;66422;51.202;19.936;2023-06-04T09:49:49;99974.96;;;23.35
77355;BMP280;66422;51.202;19.936;2023-06-04T10:05:11;99969.72;;;23.48
77355;BMP280;66422;51.202;19.936;2023-06-04T10:20:33;99961.09;;;23.34
77355;BMP280;66422;51.202;19.936;2023-06-04T10:35:54;99957.67;;;23.48
77355;BMP280;66422;51.202;19.936;2023-06-04T10:51:34;99947.73;;;22.79
77355;BMP280;66422;51.202;19.936;2023-06-04T11:07:06;99935.55;;;23.26
77355;BMP280;66422;51.202;19.936;2023-06-04T11:22:29;99922.98;;;23.18
77355;BMP280;66422;51.202;19.936;2023-06-04T11:37:53;99923.80;;;23.24
77355;BMP280;66422;51.202;19.936;2023-06-04T11:53:14;99915.76;;;24.72
77355;BMP280;66422;51.202;19.936;2023-06-04T12:08:47;99914.77;;;24.53
77355;BMP280;66422;51.202;19.936;2023-06-04T12:39:28;99900.13;;;25.22
77355;BMP280;66422;51.202;19.936;2023-06-04T12:54:47;99899.70;;;25.30
77355;BMP280;66422;51.202;19.936;2023-06-04T13:10:07;99895.20;;;24.66
77355;BMP280;66422;51.202;19.936;2023-06-04T13:25:27;99893.53;;;23.73
77355;BMP280;66422;51.202;19.936;2023-06-04T13:40:48;99896.77;;;23.09
77355;BMP280;66422;51.202;19.936;2023-06-04T13:56:07;99888.88;;;23.84
77355;BMP280;66422;51.202;19.936;2023-06-04T14:11:27;99887.60;;;24.04
77355;BMP280;66422;51.202;19.936;2023-06-04T14:26:46;99879.15;;;25.50
77355;BMP280;66422;51.202;19.936;2023-06-04T14:42:06;99867.21;;;24.89
77355;BMP280;66422;51.202;19.936;2023-06-04T14:57:25;99860.61;;;25.03
77355;BMP280;66422;51.202;19.936;2023-06-04T15:12:45;99852.14;;;25.82
77355;BMP280;66422;51.202;19.936;2023-06-04T15:28:05;99845.73;;;25.44
77355;BMP280;66422;51.202;19.936;2023-06-04T15:43:25;99836.74;;;24.18
77355;BMP280;66422;51.202;19.936;2023-06-04T15:58:45;99832.13;;;23.57
77355;BMP280;66422;51.202;19.936;2023-06-04T16:14:05;99831.81;;;23.58
77355;BMP280;66422;51.202;19.936;2023-06-04T16:29:24;99828.46;;;23.39
77355;BMP280;66422;51.202;19.936;2023-06-04T16:44:44;99831.39;;;23.53
77355;BMP280;66422;51.202;19.936;2023-06-04T17:00:05;99831.64;;;23.06
77355;BMP280;66422;51.202;19.936;2023-06-04T17:15:27;99831.52;;;22.68
77355;BMP280;66422;51.202;19.936;2023-06-04T17:30:46;99835.34;;;22.31
77355;BMP280;66422;51.202;19.936;2023-06-04T17:46:06;99836.48;;;22.20
77355;BMP280;66422;51.202;19.936;2023-06-04T18:01:25;99845.99;;;22.36
77355;BMP280;66422;51.202;19.936;2023-06-04T18:16:45;99846.43;;;20.95
77355;BMP280;66422;51.202;19.936;2023-06-04T18:32:05;99860.16;;;19.30
77355;BMP280;66422;51.202;19.936;2023-06-04T18:47:24;99873.27;;;18.56
77355;BMP280;66422;51.202;19.936;2023-06-04T19:02:45;99893.11;;;18.01
77355;BMP280;66422;51.202;19.936;2023-06-04T19:18:06;99905.68;;;17.62
77355;BMP280;66422;51.202;19.936;2023-06-04T19:33:26;99912.52;;;17.49
77355;BMP280;66422;51.202;19.936;2023-06-04T19:48:51;99923.19;;;16.89
77355;BMP280;66422;51.202;19.936;2023-06-04T20:04:11;99934.48;;;16.60
77355;BMP280;66422;51.202;19.936;2023-06-04T20:19:31;99937.88;;;16.10
77355;BMP280;66422;51.202;19.936;2023-06-04T20:34:51;99940.28;;;15.57
77355;BMP280;66422;51.202;19.936;2023-06-04T20:50:11;99950.41;;;15.19
77355;BMP280;66422;51.202;19.936;2023-06-04T21:05:31;99962.77;;;14.62
77355;BMP280;66422;51.202;19.936;2023-06-04T21:20:50;99961.80;;;14.07
77355;BMP280;66422;51.202;19.936;2023-06-04T21:36:14;99961.02;;;12.89
77355;BMP280;66422;51.202;19.936;2023-06-04T21:51:34;99968.11;;;11.86
77355;BMP280;66422;51.202;19.936;2023-06-04T22:06:54;99983.34;;;10.97
77355;BMP280;66422;51.202;19.936;2023-06-04T22:22:13;99986.80;;;10.48
77355;BMP280;66422;51.202;19.936;2023-06-04T22:37:33;99993.36;;;10.33
77355;BMP280;66422;51.202;19.936;2023-06-04T22:52:52;99996.86;;;9.67
77355;BMP280;66422;51.202;19.936;2023-06-04T23:08:12;99994.70;;;9.61
77355;BMP280;66422;51.202;19.936;2023-06-04T23:23:32;99997.02;;;9.34
77355;BMP280;66422;51.202;19.936;2023-06-04T23:38:53;100001.97;;;8.88
77355;BMP280;66422;51.202;19.936;2023-06-04T23:54:14;99999.25;;;8.70
